Time;durP1;ratioP1;P1;durP2;ratioP2;P2;SDS_P1;SDS_P2;PMS_P1;PMS_P2;Temp;Humidity;BMP_temperature;BMP_pressure;BME280_temperature;BME280_humidity;BME280_pressure;Samples;Min_cycle;Max_cycle;Signal;HPM_P1;HPM_P2
2023/09/27 00:00:17;;;;;;;7.03;3.00;;;;;;;;;;5109908;28;20425;-89
2023/09/27 00:02:46;;;;;;;7.57;2.72;;;;;;;;;;5107779;28;20041;-89
2023/09/27 00:05:12;;;;;;;9.10;2.67;;;;;;;;;;5090936;28;20024;-89
2023/09/27 00:07:39;;;;;;;5.70;2.70;;;;;;;;;;5090088;28;20122;-88
2023/09/27 00:10:06;;;;;;;6.18;2.90;;;;;;;;;;5107294;28;20020;-86
2023/09/27 00:12:32;;;;;;;11.30;2.70;;;;;;;;;;5108685;28;20024;-87
2023/09/27 00:15:00;;;;;;;12.23;3.40;;;;;;;;;;5109470;28;20509;-87
2023/09/27 00:17:26;;;;;;;10.07;2.97;;;;;;;;;;5110242;28;20051;-85
2023/09/27 00:19:52;;;;;;;8.60;2.63;;;;;;;;;;5089341;28;20103;-89
2023/09/27 00:22:18;;;;;;;8.30;3.10;;;;;;;;;;5106086;28;20027;-87
2023/09/27 00:24:44;;;;;;;6.75;2.80;;;;;;;;;;5091274;28;20039;-87
2023/09/27 00:27:14;;;;;;;8.55;3.55;;;;;;;;;;5112147;28;20059;-88
2023/09/27 00:29:40;;;;;;;10.13;3.28;;;;;;;;;;5094164;28;20023;-85
2023/09/27 00:32:06;;;;;;;8.95;2.85;;;;;;;;;;5094177;28;20088;-89
2023/09/27 00:34:32;;;;;;;9.90;3.17;;;;;;;;;;5113367;28;20031;-85
2023/09/27 00:36:58;;;;;;;9.93;3.03;;;;;;;;;;5114222;28;20040;-88
2023/09/27 00:39:24;;;;;;;7.35;3.33;;;;;;;;;;5095003;28;20391;-87
2023/09/27 00:41:50;;;;;;;10.77;3.33;;;;;;;;;;5113361;28;20161;-87
2023/09/27 00:44:16;;;;;;;8.50;2.83;;;;;;;;;;5095104;28;20042;-89
2023/09/27 00:46:42;;;;;;;7.70;3.22;;;;;;;;;;5113234;28;20031;-88
2023/09/27 00:49:09;;;;;;;7.65;2.65;;;;;;;;;;5093740;28;20031;-85
2023/09/27 00:51:35;;;;;;;10.65;3.42;;;;;;;;;;5113155;28;20023;-88
2023/09/27 00:54:01;;;;;;;12.77;3.15;;;;;;;;;;5113825;28;20564;-87
2023/09/27 00:56:28;;;;;;;8.50;3.13;;;;;;;;;;5113574;28;20040;-90
2023/09/27 00:58:54;;;;;;;10.82;3.38;;;;;;;;;;5112702;28;20103;-89
2023/09/27 01:01:20;;;;;;;8.43;2.92;;;;;;;;;;5113091;28;20409;-85
2023/09/27 01:03:47;;;;;;;8.20;2.80;;;;;;;;;;5112098;28;20106;-86
2023/09/27 01:06:14;;;;;;;8.57;2.55;;;;;;;;;;5111982;28;20098;-90
2023/09/27 01:08:41;;;;;;;11.27;3.10;;;;;;;;;;5108975;28;20080;-86
2023/09/27 01:11:07;;;;;;;10.20;3.25;;;;;;;;;;5085848;28;20110;-89
2023/09/27 01:13:33;;;;;;;12.45;3.13;;;;;;;;;;5094540;28;20051;-86
2023/09/27 01:15:59;;;;;;;12.80;3.63;;;;;;;;;;5113579;28;20026;-87
2023/09/27 01:18:28;;;;;;;10.02;3.10;;;;;;;;;;5111852;28;20040;-89
2023/09/27 01:20:54;;;;;;;11.73;2.72;;;;;;;;;;5092699;28;20578;-87
2023/09/27 01:23:21;;;;;;;7.95;3.55;;;;;;;;;;5093294;28;20065;-89
2023/09/27 01:25:49;;;;;;;10.20;3.50;;;;;;;;;;5104051;28;20024;-90
2023/09/27 01:28:15;;;;;;;11.73;3.72;;;;;;;;;;5074338;28;20024;-89
2023/09/27 01:30:42;;;;;;;13.52;3.72;;;;;;;;;;5106435;28;20057;-88
2023/09/27 01:33:09;;;;;;;10.85;3.63;;;;;;;;;;5110494;28;20020;-87
2023/09/27 01:35:37;;;;;;;11.38;3.28;;;;;;;;;;5093440;28;20024;-86
2023/09/27 01:38:03;;;;;;;;;;;;;;;;;;5111675;28;20043;-91
2023/09/27 01:40:32;;;;;;;8.27;3.63;;;;;;;;;;5110858;28;19907;-85
2023/09/27 01:42:59;;;;;;;8.10;3.30;;;;;;;;;;5091905;28;20054;-89
2023/09/27 01:45:25;;;;;;;10.25;3.25;;;;;;;;;;5091912;28;20391;-88
2023/09/27 01:47:51;;;;;;;7.35;3.65;;;17.50;99.90;;;;;;5109450;28;20023;-88
2023/09/27 01:50:21;;;;;;;11.32;3.90;;;17.50;99.90;;;;;;5093953;28;20084;-87
2023/09/27 01:52:47;;;;;;;12.23;4.07;;;17.30;99.90;;;;;;5108940;28;20023;-89
2023/09/27 01:55:13;;;;;;;15.75;4.00;;;17.30;99.90;;;;;;5092300;28;20023;-88
2023/09/27 01:57:38;;;;;;;11.85;3.33;;;17.30;99.90;;;;;;5109984;28;20088;-90
2023/09/27 02:00:11;;;;;;;10.93;3.80;;;17.20;99.90;;;;;;5112871;28;20471;-85
2023/09/27 02:02:43;;;;;;;9.43;3.25;;;17.20;99.90;;;;;;5111125;28;20559;-89
2023/09/27 02:05:09;;;;;;;10.63;3.65;;;17.20;99.90;;;;;;5111067;28;20031;-85
2023/09/27 02:07:39;;;;;;;15.85;3.65;;;17.20;99.90;;;;;;5092520;28;20091;-85
2023/09/27 02:10:13;;;;;;;7.43;2.85;;;17.20;99.90;;;;;;5098848;28;20019;-88
2023/09/27 02:12:40;;;;;;;9.68;3.03;;;17.30;99.90;;;;;;5108935;28;20023;-85
2023/09/27 02:15:07;;;;;;;10.80;3.38;;;17.40;99.90;;;;;;5111880;28;20028;-87
2023/09/27 02:17:33;;;;;;;9.35;2.85;;;17.50;99.90;;;;;;5111522;28;20030;-85
2023/09/27 02:19:59;;;;;;;12.32;3.15;;;17.50;99.90;;;;;;5110651;28;20035;-89
2023/09/27 02:22:24;;;;;;;8.10;3.30;;;17.60;99.90;;;;;;5110403;28;20023;-87
2023/09/27 02:24:50;;;;;;;9.20;3.15;;;17.60;99.90;;;;;;5092259;28;20055;-85
2023/09/27 02:27:16;;;;;;;10.52;3.45;;;17.60;99.90;;;;;;5110255;28;20028;-85
2023/09/27 02:29:42;;;;;;;17.13;4.13;;;17.60;99.90;;;;;;5108489;28;20024;-85
2023/09/27 02:32:07;;;;;;;9.65;3.25;;;17.50;99.90;;;;;;5111064;28;20020;-85
2023/09/27 02:34:34;;;;;;;9.52;3.33;;;17.50;99.90;;;;;;5112006;28;20077;-87
2023/09/27 02:37:00;;;;;;;14.30;3.50;;;17.40;99.90;;;;;;5110856;28;20050;-87
2023/09/27 02:39:25;;;;;;;12.07;3.13;;;17.40;99.90;;;;;;5111142;28;20096;-89
2023/09/27 02:41:51;;;;;;;10.93;3.50;;;17.50;99.90;;;;;;5092824;28;20034;-88
2023/09/27 02:44:17;;;;;;;9.57;3.05;;;17.40;99.90;;;;;;5093016;28;20080;-90
2023/09/27 02:46:44;;;;;;;13.05;3.00;;;17.20;99.90;;;;;;5110037;28;20487;-88
2023/09/27 02:49:10;;;;;;;8.25;3.00;;;17.30;99.90;;;;;;5109668;28;20027;-86
2023/09/27 02:51:37;;;;;;;9.90;3.30;;;17.40;99.90;;;;;;5111587;28;20077;-87
2023/09/27 02:54:04;;;;;;;13.50;3.47;;;17.50;99.90;;;;;;5110615;28;20020;-86
2023/09/27 02:56:30;;;;;;;9.55;2.90;;;17.50;99.90;;;;;;5110681;28;20114;-86
2023/09/27 02:58:56;;;;;;;12.77;4.03;;;17.50;99.90;;;;;;5110743;28;20078;-89
2023/09/27 03:01:21;;;;;;;9.52;2.85;;;17.40;99.90;;;;;;5110602;28;20495;-86
2023/09/27 03:03:47;;;;;;;10.00;3.05;;;17.40;99.90;;;;;;5109646;28;20106;-88
2023/09/27 03:06:14;;;;;;;12.73;3.03;;;17.50;99.90;;;;;;5109922;28;20024;-89
2023/09/27 03:08:40;;;;;;;8.13;3.13;;;17.50;99.90;;;;;;5090848;28;20032;-85
2023/09/27 03:11:06;;;;;;;7.72;3.22;;;17.60;99.90;;;;;;5110422;28;20035;-86
2023/09/27 03:13:36;;;;;;;8.98;3.30;;;17.60;99.90;;;;;;5107806;28;20019;-87
2023/09/27 03:16:02;;;;;;;12.50;3.67;;;17.70;99.90;;;;;;5108979;28;20038;-86
2023/09/27 03:18:28;;;;;;;16.83;3.83;;;17.70;99.90;;;;;;5109060;28;20074;-85
2023/09/27 03:20:54;;;;;;;14.27;3.63;;;17.70;99.90;;;;;;5108311;28;20055;-85
2023/09/27 03:23:19;;;;;;;17.98;4.05;;;17.70;99.90;;;;;;5089801;28;20024;-88
2023/09/27 03:25:48;;;;;;;17.70;5.00;;;17.70;99.90;;;;;;5089868;28;20432;-88
2023/09/27 03:28:14;;;;;;;14.43;4.20;;;17.70;99.90;;;;;;5106341;28;20028;-88
2023/09/27 03:30:40;;;;;;;24.95;5.20;;;17.70;99.90;;;;;;5108245;28;20030;-89
2023/09/27 03:33:06;;;;;;;22.38;5.57;;;17.70;99.90;;;;;;5107105;28;20084;-89
2023/09/27 03:35:32;;;;;;;16.45;5.10;;;17.60;99.90;;;;;;5109238;28;20031;-89
2023/09/27 03:37:57;;;;;;;18.55;5.20;;;17.70;99.90;;;;;;5106441;28;20047;-84
2023/09/27 03:40:23;;;;;;;13.38;4.95;;;17.60;99.90;;;;;;5090757;28;20024;-89
2023/09/27 03:42:49;;;;;;;16.83;4.95;;;17.70;99.90;;;;;;5090994;28;20036;-90
2023/09/27 03:45:16;;;;;;;12.93;5.18;;;17.70;99.90;;;;;;5090654;28;20020;-85
2023/09/27 03:47:45;;;;;;;12.10;4.68;;;17.70;99.90;;;;;;5108853;28;20529;-84
2023/09/27 03:50:12;;;;;;;10.02;4.40;;;17.70;99.90;;;;;;5103114;28;20088;-89
2023/09/27 03:52:40;;;;;;;11.95;4.47;;;17.80;99.90;;;;;;5072557;28;20043;-84
2023/09/27 03:55:07;;;;;;;8.52;4.03;;;17.80;99.90;;;;;;5091108;28;20123;-87
2023/09/27 03:57:33;;;;;;;15.03;4.77;;;17.80;99.90;;;;;;5091580;28;20483;-85
2023/09/27 03:59:58;;;;;;;10.38;4.53;;;17.80;99.90;;;;;;5107609;28;20483;-85
2023/09/27 04:02:25;;;;;;;11.73;4.88;;;17.80;99.90;;;;;;5116528;28;20031;-84
2023/09/27 04:04:51;;;;;;;10.45;4.65;;;17.80;99.90;;;;;;5116319;28;20023;-89
2023/09/27 04:07:18;;;;;;;9.77;4.15;;;17.80;99.90;;;;;;5098085;28;20395;-86
2023/09/27 04:09:45;;;;;;;10.20;4.45;;;17.80;99.90;;;;;;5096479;28;20020;-88
2023/09/27 04:12:11;;;;;;;10.90;4.45;;;17.80;99.90;;;;;;5116614;28;20028;-89
2023/09/27 04:14:40;;;;;;;8.98;3.72;;;17.70;99.90;;;;;;5095809;28;20026;-85
2023/09/27 04:17:05;;;;;;;34.75;4.72;;;17.70;99.90;;;;;;5095983;28;20043;-88
2023/09/27 04:19:31;;;;;;;17.10;4.75;;;17.70;99.90;;;;;;5114588;28;20053;-85
2023/09/27 04:21:57;;;;;;;20.70;5.20;;;17.60;99.90;;;;;;5115812;28;20077;-85
2023/09/27 04:24:23;;;;;;;12.00;4.63;;;17.70;99.90;;;;;;5113928;28;20035;-86
2023/09/27 04:26:49;;;;;;;10.43;4.60;;;17.70;99.90;;;;;;5116035;28;20016;-85
2023/09/27 04:29:15;;;;;;;12.30;4.63;;;17.70;99.90;;;;;;5113743;28;20098;-86
2023/09/27 04:31:40;;;;;;;9.60;4.55;;;17.70;99.90;;;;;;5115637;28;20035;-84
2023/09/27 04:34:06;;;;;;;12.73;4.97;;;17.70;99.90;;;;;;5097243;28;20066;-85
2023/09/27 04:36:32;;;;;;;16.55;4.95;;;17.70;99.90;;;;;;5115750;28;20024;-84
2023/09/27 04:38:57;;;;;;;13.38;5.53;;;17.60;99.90;;;;;;5097418;28;20035;-84
2023/09/27 04:41:23;;;;;;;16.02;5.97;;;17.60;99.90;;;;;;5097059;28;20051;-85
2023/09/27 04:43:49;;;;;;;15.15;4.80;;;17.60;99.90;;;;;;5115538;28;20160;-85
2023/09/27 04:46:16;;;;;;;9.40;4.50;;;17.60;99.90;;;;;;5114883;28;20024;-84
2023/09/27 04:48:42;;;;;;;14.93;5.30;;;17.70;99.90;;;;;;5097911;28;20542;-84
2023/09/27 04:51:08;;;;;;;11.52;5.20;;;17.70;99.90;;;;;;5096891;28;20157;-84
2023/09/27 04:53:37;;;;;;;13.60;5.38;;;17.60;99.90;;;;;;5097010;28;20020;-83
2023/09/27 04:56:12;;;;;;;14.55;5.68;;;17.70;99.90;;;;;;5096908;28;20706;-84
2023/09/27 04:58:43;;;;;;;19.58;5.75;;;17.70;99.90;;;;;;5115474;28;20487;-84
2023/09/27 05:01:10;;;;;;;22.42;6.45;;;17.60;99.90;;;;;;5107722;27;20019;-90
2023/09/27 05:03:36;;;;;;;22.90;6.53;;;17.60;99.90;;;;;;5096732;27;20028;-84
2023/09/27 05:06:02;;;;;;;18.65;6.47;;;17.60;99.90;;;;;;5111835;28;20023;-85
2023/09/27 05:08:27;;;;;;;19.33;6.30;;;17.50;99.90;;;;;;5114075;28;20106;-84
2023/09/27 05:10:54;;;;;;;20.10;6.40;;;17.60;99.90;;;;;;5113880;28;20028;-84
2023/09/27 05:13:21;;;;;;;20.55;6.93;;;17.60;99.90;;;;;;5109788;28;20019;-84
2023/09/27 05:15:52;;;;;;;23.35;6.68;;;17.60;99.90;;;;;;5093672;28;20032;-84
2023/09/27 05:18:18;;;;;;;21.95;5.95;;;17.60;99.90;;;;;;5111876;28;20044;-84
2023/09/27 05:20:43;;;;;;;26.80;6.95;;;17.60;99.90;;;;;;5100404;28;20012;-85
2023/09/27 05:23:10;;;;;;;22.90;7.65;;;17.60;99.90;;;;;;5092092;28;20030;-85
2023/09/27 05:25:35;;;;;;;24.50;6.55;;;17.60;99.90;;;;;;5112005;28;20494;-85
2023/09/27 05:28:01;;;;;;;12.85;5.55;;;17.60;99.90;;;;;;5111352;28;20031;-85
2023/09/27 05:30:26;;;;;;;17.65;5.78;;;17.50;99.90;;;;;;5107506;28;20037;-88
2023/09/27 05:32:53;;;;;;;12.57;5.28;;;17.40;99.90;;;;;;5091997;28;20393;-89
2023/09/27 05:35:19;;;;;;;16.15;5.65;;;17.40;99.90;;;;;;5112174;28;20108;-85
2023/09/27 05:37:44;;;;;;;15.40;5.15;;;17.50;99.90;;;;;;5111506;28;20055;-88
2023/09/27 05:40:10;;;;;;;15.38;5.63;;;17.40;99.90;;;;;;5092594;28;20093;-88
2023/09/27 05:42:37;;;;;;;17.75;5.38;;;17.40;99.90;;;;;;5092543;28;20023;-90
2023/09/27 05:45:04;;;;;;;14.45;5.63;;;17.40;99.90;;;;;;5076789;28;20036;-86
2023/09/27 05:47:30;;;;;;;12.52;5.32;;;17.30;99.90;;;;;;5106516;28;20020;-87
2023/09/27 05:49:56;;;;;;;12.13;5.30;;;17.30;99.90;;;;;;5110200;28;20035;-83
2023/09/27 05:52:22;;;;;;;15.05;5.10;;;17.20;99.90;;;;;;5111101;28;20024;-85
2023/09/27 05:54:48;;;;;;;13.75;5.28;;;17.30;99.90;;;;;;5109951;28;20032;-84
2023/09/27 05:57:14;;;;;;;10.32;5.47;;;17.20;99.90;;;;;;5093644;28;20507;-84
2023/09/27 05:59:45;;;;;;;8.85;4.78;;;17.20;99.90;;;;;;5090766;28;20528;-86
2023/09/27 06:02:16;;;;;;;7.85;4.57;;;17.20;99.90;;;;;;5091946;28;20496;-85
2023/09/27 06:04:47;;;;;;;7.55;4.60;;;17.20;99.90;;;;;;5091028;28;20016;-85
2023/09/27 06:07:15;;;;;;;9.23;4.45;;;17.10;99.90;;;;;;5108978;28;20042;-83
2023/09/27 06:09:44;;;;;;;10.32;4.90;;;17.10;99.90;;;;;;5092302;28;20024;-88
2023/09/27 06:12:10;;;;;;;10.02;4.20;;;17.10;99.90;;;;;;5109943;28;20028;-89
2023/09/27 06:14:38;;;;;;;8.93;4.22;;;17.10;99.90;;;;;;5093357;28;20126;-89
2023/09/27 06:17:04;;;;;;;8.40;4.50;;;17.10;99.90;;;;;;5111390;28;20602;-89
2023/09/27 06:19:33;;;;;;;10.07;4.53;;;17.00;99.90;;;;;;5114361;27;20057;-87
2023/09/27 06:21:59;;;;;;;5.30;3.80;;;17.10;99.90;;;;;;5110759;27;20080;-84
2023/09/27 06:24:28;;;;;;;7.55;4.40;;;17.10;99.90;;;;;;5119765;27;20024;-89
2023/09/27 06:26:53;;;;;;;9.10;4.38;;;17.10;99.90;;;;;;5091983;28;20031;-85
2023/09/27 06:29:19;;;;;;;10.43;4.20;;;17.10;99.90;;;;;;5110389;28;20019;-86
2023/09/27 06:31:49;;;;;;;9.18;4.05;;;17.10;99.90;;;;;;5093123;28;20020;-89
2023/09/27 06:34:16;;;;;;;8.52;4.38;;;17.00;99.90;;;;;;5111501;28;20055;-86
2023/09/27 06:36:42;;;;;;;13.65;5.35;;;17.00;99.90;;;;;;5091869;28;20499;-87
2023/09/27 06:39:15;;;;;;;12.32;4.90;;;17.00;99.90;;;;;;5092260;28;20491;-85
2023/09/27 06:41:45;;;;;;;10.98;5.10;;;17.10;99.90;;;;;;5072101;28;20032;-85
2023/09/27 06:44:12;;;;;;;12.38;4.93;;;17.10;99.90;;;;;;5071676;28;20024;-84
2023/09/27 06:46:38;;;;;;;15.52;5.65;;;17.10;99.90;;;;;;5090582;28;20030;-85
2023/09/27 06:49:03;;;;;;;12.18;4.43;;;17.10;99.90;;;;;;5091796;28;20076;-87
2023/09/27 06:51:30;;;;;;;11.15;4.43;;;17.10;99.90;;;;;;5109802;28;20039;-83
2023/09/27 06:53:55;;;;;;;10.35;4.28;;;17.10;99.90;;;;;;5091515;28;20227;-85
2023/09/27 06:56:22;;;;;;;13.65;4.22;;;17.10;99.90;;;;;;5109555;28;20553;-85
2023/09/27 06:58:49;;;;;;;12.65;4.53;;;17.10;99.90;;;;;;5110460;28;20149;-84
2023/09/27 07:01:15;;;;;;;14.60;4.57;;;17.20;99.90;;;;;;5109450;28;20038;-84
2023/09/27 07:03:40;;;;;;;14.52;4.65;;;17.20;99.90;;;;;;5089306;28;20032;-89
2023/09/27 07:06:06;;;;;;;12.73;4.38;;;17.20;99.90;;;;;;5089237;28;20024;-84
2023/09/27 07:08:32;;;;;;;12.07;4.32;;;17.20;99.90;;;;;;5084058;28;20035;-87
2023/09/27 07:11:09;;;;;;;16.38;4.90;;;17.30;99.90;;;;;;5091287;28;20020;-87
2023/09/27 07:13:37;;;;;;;12.70;4.45;;;17.30;99.90;;;;;;5107222;28;20077;-86
2023/09/27 07:16:18;;;;;;;8.55;3.70;;;17.40;99.90;;;;;;5091239;28;20027;-86
2023/09/27 07:18:44;;;;;;;13.07;4.22;;;17.40;99.90;;;;;;5089990;28;20126;-86
2023/09/27 07:21:10;;;;;;;12.70;4.55;;;17.40;99.90;;;;;;5109490;28;20729;-85
2023/09/27 07:23:35;;;;;;;11.82;4.32;;;17.40;99.90;;;;;;5109137;28;20531;-89
2023/09/27 07:26:05;;;;;;;15.82;4.90;;;17.40;99.90;;;;;;5091535;28;20034;-87
2023/09/27 07:28:31;;;;;;;10.60;3.70;;;17.50;99.90;;;;;;5091475;28;20034;-88
2023/09/27 07:30:57;;;;;;;12.13;4.40;;;17.50;99.90;;;;;;5108995;28;20047;-84
2023/09/27 07:33:24;;;;;;;10.35;4.35;;;17.60;99.90;;;;;;5109423;28;20062;-85
2023/09/27 07:35:52;;;;;;;10.52;3.90;;;17.70;99.90;;;;;;5090728;28;20047;-90
2023/09/27 07:38:18;;;;;;;11.80;4.27;;;17.80;99.90;;;;;;5109923;28;20032;-86
2023/09/27 07:40:47;;;;;;;14.27;4.25;;;17.80;99.90;;;;;;5108813;28;20258;-85
2023/09/27 07:43:14;;;;;;;14.45;3.78;;;17.90;99.90;;;;;;5090462;28;20031;-83
2023/09/27 07:45:42;;;;;;;12.40;4.00;;;18.00;99.90;;;;;;5108967;28;20011;-84
2023/09/27 07:48:08;;;;;;;12.57;4.65;;;18.00;99.90;;;;;;5113172;27;20019;-87
2023/09/27 07:50:37;;;;;;;11.52;3.95;;;18.00;99.90;;;;;;5114356;27;20488;-87
2023/09/27 07:53:03;;;;;;;12.32;4.10;;;18.00;99.90;;;;;;5089663;28;20028;-84
2023/09/27 07:55:33;;;;;;;18.88;4.45;;;18.00;99.90;;;;;;5089143;28;20062;-86
2023/09/27 07:57:59;;;;;;;10.55;4.00;;;18.00;99.90;;;;;;5089075;28;20058;-85
2023/09/27 08:00:27;;;;;;;9.95;3.78;;;18.00;99.90;;;;;;5089756;28;20478;-86
2023/09/27 08:02:55;;;;;;;11.35;3.97;;;18.00;99.90;;;;;;5107185;28;20023;-87
2023/09/27 08:05:22;;;;;;;10.83;4.10;;;18.10;99.90;;;;;;5092182;28;20398;-87
2023/09/27 08:07:48;;;;;;;15.45;4.53;;;18.10;99.90;;;;;;5091887;28;20750;-89
2023/09/27 08:10:15;;;;;;;13.25;4.10;;;18.10;99.90;;;;;;5091386;28;20483;-90
2023/09/27 08:12:42;;;;;;;15.07;4.05;;;18.20;99.90;;;;;;5090296;28;20077;-87
2023/09/27 08:15:08;;;;;;;12.97;4.13;;;18.20;99.90;;;;;;5091884;28;20020;-90
2023/09/27 08:17:35;;;;;;;9.73;4.03;;;18.20;99.90;;;;;;5091196;28;20028;-90
2023/09/27 08:20:09;;;;;;;12.07;4.45;;;18.30;99.90;;;;;;5106285;28;20019;-88
2023/09/27 08:22:36;;;;;;;11.02;4.28;;;18.30;99.90;;;;;;5090910;28;20060;-87
2023/09/27 08:25:04;;;;;;;12.63;3.72;;;18.40;99.90;;;;;;5104108;28;20528;-87
2023/09/27 08:27:30;;;;;;;17.85;4.57;;;18.40;99.90;;;;;;5090376;28;20039;-85
2023/09/27 08:29:55;;;;;;;12.20;3.92;;;18.50;99.90;;;;;;5108546;28;20487;-85
2023/09/27 08:32:21;;;;;;;10.38;3.75;;;18.60;99.90;;;;;;5109533;28;20019;-86
2023/09/27 08:34:46;;;;;;;12.15;3.90;;;18.70;99.90;;;;;;5108454;28;20432;-86
2023/09/27 08:37:12;;;;;;;12.32;3.53;;;18.80;99.90;;;;;;5108664;28;20198;-88
2023/09/27 08:39:38;;;;;;;10.88;3.25;;;18.90;99.90;;;;;;5091044;28;20415;-87
2023/09/27 08:42:04;;;;;;;13.68;4.60;;;19.00;99.90;;;;;;5108328;28;20068;-87
2023/09/27 08:44:32;;;;;;;12.98;3.40;;;19.20;99.90;;;;;;5097125;28;20016;-87
2023/09/27 08:46:58;;;;;;;10.60;3.40;;;19.20;99.90;;;;;;5091409;28;20030;-85
2023/09/27 08:49:24;;;;;;;6.57;3.25;;;19.30;99.90;;;;;;5094653;28;20035;-85
2023/09/27 08:51:51;;;;;;;11.20;3.08;;;19.40;99.90;;;;;;5095412;28;20028;-88
2023/09/27 08:54:19;;;;;;;9.13;3.10;;;19.50;99.90;;;;;;5112964;28;20027;-84
2023/09/27 08:56:48;;;;;;;11.88;3.30;;;19.50;99.90;;;;;;5119258;27;20034;-83
2023/09/27 08:59:15;;;;;;;10.65;3.17;;;19.60;99.90;;;;;;5094306;27;20365;-85
2023/09/27 09:01:43;;;;;;;13.32;3.35;;;19.60;99.90;;;;;;5093343;28;20069;-89
2023/09/27 09:04:09;;;;;;;8.88;2.97;;;19.60;99.90;;;;;;5094388;28;20077;-91
2023/09/27 09:06:35;;;;;;;8.27;3.55;;;19.60;99.90;;;;;;5094757;28;20028;-90
2023/09/27 09:09:11;;;;;;;10.13;3.22;;;19.60;99.90;;;;;;5094470;28;20115;-85
2023/09/27 09:11:47;;;;;;;8.63;3.30;;;19.60;99.90;;;;;;5112355;28;20019;-90
2023/09/27 09:14:17;;;;;;;14.55;3.92;;;19.70;99.90;;;;;;5112137;28;20024;-90
2023/09/27 09:16:53;;;;;;;9.15;3.60;;;19.70;99.90;;;;;;5112202;28;20104;-89
2023/09/27 09:19:22;;;;;;;9.50;3.75;;;19.70;99.90;;;;;;5112160;28;20019;-90
2023/09/27 09:22:05;;;;;;;8.07;3.20;;;19.70;99.90;;;;;;5094485;28;20052;-88
2023/09/27 09:24:35;;;;;;;12.15;3.65;;;19.70;99.90;;;;;;5112231;28;20099;-87
2023/09/27 09:27:18;;;;;;;10.77;3.33;;;19.80;99.90;;;;;;5093607;28;20051;-85
2023/09/27 09:29:46;;;;;;;7.78;2.97;;;19.90;99.90;;;;;;5111842;28;20030;-88
2023/09/27 09:32:30;;;;;;;11.82;3.65;;;20.00;99.90;;;;;;5112011;28;20491;-85
2023/09/27 09:34:56;;;;;;;12.10;3.20;;;20.10;99.90;;;;;;5106877;28;20092;-86
2023/09/27 09:37:27;;;;;;;11.98;3.08;;;20.10;99.90;;;;;;5086859;28;20115;-84
2023/09/27 09:40:05;;;;;;;7.07;3.17;;;20.20;99.90;;;;;;5089994;28;20560;-85
2023/09/27 09:42:31;;;;;;;13.52;3.58;;;20.20;99.90;;;;;;5072444;28;20036;-84
2023/09/27 09:45:06;;;;;;;7.32;2.97;;;20.30;99.90;;;;;;5065348;28;20023;-85
2023/09/27 09:47:39;;;;;;;8.75;2.97;;;20.30;99.90;;;;;;5071964;28;20159;-87
2023/09/27 09:50:12;;;;;;;9.27;3.08;;;20.40;99.90;;;;;;5095169;28;20110;-85
2023/09/27 09:52:40;;;;;;;9.10;3.25;;;20.50;99.90;;;;;;5109851;28;20406;-90
2023/09/27 09:55:08;;;;;;;12.52;2.85;;;20.50;99.90;;;;;;5110546;28;20020;-84
2023/09/27 09:57:40;;;;;;;11.40;3.00;;;20.50;99.90;;;;;;5110942;28;20031;-87
2023/09/27 10:00:17;;;;;;;12.43;3.15;;;20.50;99.90;;;;;;5110364;28;20020;-90
2023/09/27 10:02:51;;;;;;;10.60;3.20;;;20.50;99.90;;;;;;5103601;28;20239;-91
2023/09/27 10:05:21;;;;;;;10.80;3.22;;;20.60;99.90;;;;;;5090693;28;21375;-90
2023/09/27 10:07:48;;;;;;;8.13;3.03;;;20.60;99.90;;;;;;5072553;28;20502;-85
2023/09/27 10:10:17;;;;;;;7.32;3.10;;;20.60;99.90;;;;;;5070862;28;20027;-85
2023/09/27 10:12:46;;;;;;;8.98;3.35;;;20.60;99.90;;;;;;5108418;28;20061;-89
2023/09/27 10:15:17;;;;;;;9.73;3.17;;;20.60;99.90;;;;;;5110753;28;20413;-88
2023/09/27 10:17:42;;;;;;;9.88;3.22;;;20.60;99.90;;;;;;5110901;28;20122;-88
2023/09/27 10:20:20;;;;;;;8.63;3.28;;;20.70;99.90;;;;;;5110557;28;20099;-86
2023/09/27 10:22:49;;;;;;;8.55;3.03;;;20.70;99.90;;;;;;5110942;28;20023;-85
2023/09/27 10:25:24;;;;;;;7.88;2.75;;;20.70;99.90;;;;;;5091946;28;20027;-84
2023/09/27 10:28:01;;;;;;;14.82;3.15;;;20.80;99.90;;;;;;5089815;28;20028;-85
2023/09/27 10:30:45;;;;;;;9.98;3.30;;;20.90;99.90;;;;;;5106460;28;20022;-85
2023/09/27 10:33:17;;;;;;;6.05;2.80;;;20.90;99.90;;;;;;5092132;28;20031;-88
2023/09/27 10:36:06;;;;;;;10.32;3.25;;;20.90;99.90;;;;;;5076783;28;20619;-84
2023/09/27 10:38:52;;;;;;;7.30;2.95;;;20.90;99.90;;;;;;5069040;28;20050;-84
2023/09/27 10:41:38;;;;;;;10.13;3.75;;;21.00;99.90;;;;;;5065340;28;20039;-84
2023/09/27 10:44:04;;;;;;;10.88;3.00;;;21.10;99.90;;;;;;5067100;28;20036;-89
2023/09/27 10:46:41;;;;;;;10.25;3.58;;;21.10;99.90;;;;;;5068700;28;20505;-84
2023/09/27 10:49:06;;;;;;;9.10;2.80;;;21.20;99.90;;;;;;5069799;28;20442;-90
2023/09/27 10:51:32;;;;;;;6.13;3.00;;;21.20;99.90;;;;;;5082859;28;20047;-84
2023/09/27 10:53:59;;;;;;;7.25;3.00;;;21.20;99.90;;;;;;5093190;28;20110;-84
2023/09/27 10:56:24;;;;;;;7.25;2.70;;;21.20;99.90;;;;;;5092700;28;20019;-84
2023/09/27 10:58:50;;;;;;;9.82;3.20;;;21.10;99.90;;;;;;5110295;28;20448;-84
2023/09/27 11:01:19;;;;;;;7.30;2.70;;;21.20;99.90;;;;;;5109503;28;20527;-84
2023/09/27 11:03:45;;;;;;;8.73;2.88;;;21.30;99.90;;;;;;5092172;28;20042;-85
2023/09/27 11:06:12;;;;;;;8.95;2.95;;;21.30;99.90;;;;;;5110233;28;20023;-84
2023/09/27 11:08:40;;;;;;;7.20;2.80;;;21.30;99.90;;;;;;5103810;28;20077;-84
2023/09/27 11:11:15;;;;;;;9.60;3.15;;;21.30;99.90;;;;;;5088825;28;20028;-84
2023/09/27 11:13:45;;;;;;;7.38;2.65;;;21.50;99.90;;;;;;5071455;28;20099;-84
2023/09/27 11:16:13;;;;;;;6.10;3.10;;;21.50;99.90;;;;;;5089682;28;20020;-85
2023/09/27 11:18:48;;;;;;;9.57;3.55;;;21.60;99.90;;;;;;5090148;28;20149;-89
2023/09/27 11:21:15;;;;;;;5.90;2.90;;;21.60;99.90;;;;;;5089809;28;20099;-84
2023/09/27 11:23:58;;;;;;;8.43;3.28;;;21.70;99.90;;;;;;5089854;28;20500;-85
2023/09/27 11:26:28;;;;;;;6.22;3.00;;;21.70;99.90;;;;;;5089865;28;20032;-88
2023/09/27 11:29:03;;;;;;;9.95;3.63;;;21.80;99.90;;;;;;5071988;28;20514;-89
2023/09/27 11:31:33;;;;;;;10.20;3.05;;;21.90;99.90;;;;;;5090915;28;20171;-89
2023/09/27 11:34:17;;;;;;;8.88;4.00;;;21.90;99.90;;;;;;5096188;28;20015;-88
2023/09/27 11:36:46;;;;;;;9.32;3.47;;;22.00;99.90;;;;;;5081996;28;21191;-85
2023/09/27 11:39:16;;;;;;;8.52;3.38;;;22.00;99.90;;;;;;5080888;28;20585;-86
2023/09/27 11:41:42;;;;;;;8.73;3.03;;;22.00;99.90;;;;;;5081825;28;20088;-86
2023/09/27 11:44:21;;;;;;;9.85;3.70;;;22.10;99.90;;;;;;5063167;28;21906;-87
2023/09/27 11:46:49;;;;;;;7.68;3.28;;;22.20;99.90;;;;;;5081870;28;20024;-87
2023/09/27 11:49:16;;;;;;;12.70;3.22;;;22.20;99.90;;;;;;5082367;28;20031;-85
2023/09/27 11:51:42;;;;;;;6.00;3.17;;;22.20;99.90;;;;;;5065563;28;20049;-88
2023/09/27 11:54:09;;;;;;;6.43;3.20;;;22.30;99.90;;;;;;5081867;28;20035;-87
2023/09/27 11:56:36;;;;;;;7.13;2.92;;;22.20;99.90;;;;;;5092314;28;20493;-90
2023/09/27 11:59:05;;;;;;;6.78;3.08;;;22.30;99.90;;;;;;5092841;28;20024;-88
2023/09/27 12:01:33;;;;;;;6.70;3.28;;;22.30;99.90;;;;;;5109871;28;20031;-90
2023/09/27 12:03:59;;;;;;;5.65;3.10;;;22.30;99.90;;;;;;5092908;28;20058;-90
2023/09/27 12:06:27;;;;;;;8.48;3.53;;;22.30;99.90;;;;;;5109982;28;20059;-90
2023/09/27 12:08:54;;;;;;;9.32;3.28;;;22.30;99.90;;;;;;5108727;28;20076;-90
2023/09/27 12:11:19;;;;;;;9.27;3.25;;;22.40;99.90;;;;;;5092333;28;20032;-89
2023/09/27 12:13:45;;;;;;;5.28;3.28;;;22.40;99.90;;;;;;5109774;28;20041;-87
2023/09/27 12:16:11;;;;;;;8.43;3.22;;;22.50;99.90;;;;;;5109770;28;20020;-89
2023/09/27 12:18:37;;;;;;;7.22;3.47;;;22.40;99.90;;;;;;5109741;28;20031;-89
2023/09/27 12:21:03;;;;;;;7.25;3.38;;;22.50;99.90;;;;;;5110830;28;20023;-87
2023/09/27 12:23:29;;;;;;;6.03;3.17;;;22.50;99.90;;;;;;5112375;28;20076;-89
2023/09/27 12:25:55;;;;;;;6.78;3.40;;;22.60;99.90;;;;;;5095614;28;20115;-91
2023/09/27 12:28:20;;;;;;;8.02;3.25;;;22.60;99.90;;;;;;5095792;28;20024;-87
2023/09/27 12:30:46;;;;;;;7.00;3.30;;;22.70;99.90;;;;;;5095624;28;20364;-89
2023/09/27 12:33:15;;;;;;;5.10;3.08;;;22.60;99.90;;;;;;5112673;28;20439;-91
2023/09/27 12:35:42;;;;;;;7.82;3.28;;;22.70;99.90;;;;;;5100438;28;20024;-87
2023/09/27 12:38:07;;;;;;;9.00;3.20;;;22.80;99.90;;;;;;5093253;28;20028;-91
2023/09/27 12:40:34;;;;;;;6.65;3.35;;;22.80;99.90;;;;;;5094150;28;20020;-89
2023/09/27 12:43:01;;;;;;;11.65;3.58;;;22.90;99.90;;;;;;5093811;28;20495;-92
2023/09/27 12:45:26;;;;;;;6.67;3.50;;;22.90;99.90;;;;;;5093196;28;20111;-86
2023/09/27 12:47:52;;;;;;;7.75;3.50;;;22.90;99.90;;;;;;5080366;28;20114;-91
2023/09/27 12:50:20;;;;;;;7.18;3.38;;;23.00;99.90;;;;;;5095456;28;20051;-89
2023/09/27 12:52:46;;;;;;;7.90;3.30;;;23.00;99.90;;;;;;5095246;28;20027;-90
2023/09/27 12:55:11;;;;;;;7.78;3.75;;;23.00;99.90;;;;;;5095136;28;20026;-86
2023/09/27 12:57:37;;;;;;;6.13;3.50;;;22.90;99.90;;;;;;5113230;28;20031;-90